AFL732 USTR-UNNT
Flight info
| Callsign | AFL732 |
|---|---|
| Flight time | N/A |
| Altitude | 37000 |
| Route | NAPOR1T NAPOR T448 RUBOR A300 ML R814 SZ W1 GOLIM GOLIM1K |
| Aircraft | A320/M-SDE3FGHIRWY/LB1 |
Departure
| Time | 2026-04-30 14:56 |
|---|---|
| Airport | Roshchino International Airport (USTR) |
Arrival
| Time | N/A |
|---|---|
| Airport | Novosibirsk Tolmachevo Airport (UNNT) |
| Time | Latitude | Longitude | Altitude | Speed | Heading |
|---|---|---|---|---|---|
| 2026-04-30 14:49 | 57.18071 | 65.34612 | 383 ft | 0 kts | 135° |
| 2026-04-30 14:51 | 57.18051 | 65.34649 | 383 ft | 5 kts | 135° |
| 2026-04-30 14:51 | 57.18015 | 65.34713 | 383 ft | 8 kts | 135° |
| 2026-04-30 14:51 | 57.17897 | 65.34931 | 383 ft | 14 kts | 135° |
| 2026-04-30 14:52 | 57.17824 | 65.35065 | 383 ft | 15 kts | 134° |
| 2026-04-30 14:52 | 57.17673 | 65.35347 | 383 ft | 15 kts | 134° |
| 2026-04-30 14:52 | 57.17594 | 65.35493 | 383 ft | 16 kts | 134° |
| 2026-04-30 14:53 | 57.17436 | 65.35712 | 383 ft | 14 kts | 180° |
| 2026-04-30 14:53 | 57.17371 | 65.35702 | 383 ft | 1 kts | 202° |
| 2026-04-30 14:54 | 57.17370 | 65.35701 | 383 ft | 0 kts | 203° |
| 2026-04-30 14:55 | 57.17335 | 65.35657 | 383 ft | 6 kts | 221° |
| 2026-04-30 14:55 | 57.17298 | 65.35580 | 383 ft | 9 kts | 244° |
| 2026-04-30 14:55 | 57.17668 | 65.34805 | 383 ft | 101 kts | 313° |
| 2026-04-30 14:56 | 57.19175 | 65.32645 | 1078 ft | 138 kts | 0° |
| 2026-04-30 14:56 | 57.20950 | 65.33127 | 1923 ft | 144 kts | 341° |
| 2026-04-30 14:57 | 57.21714 | 65.31979 | 2300 ft | 152 kts | 292° |
| 2026-04-30 14:57 | 57.22196 | 65.27980 | 3031 ft | 176 kts | 291° |
| 2026-04-30 14:58 | 57.24167 | 65.25366 | 3721 ft | 201 kts | 11° |
| 2026-04-30 14:58 | 57.25374 | 65.26630 | 4047 ft | 214 kts | 57° |
| 2026-04-30 14:58 | 57.26087 | 65.32124 | 5182 ft | 238 kts | 85° |
| 2026-04-30 14:59 | 57.26596 | 65.38567 | 6198 ft | 274 kts | 82° |
| 2026-04-30 15:00 | 57.27493 | 65.49982 | 7585 ft | 326 kts | 98° |
| 2026-04-30 15:00 | 57.26561 | 65.58581 | 8457 ft | 360 kts | 103° |
| 2026-04-30 15:01 | 57.25514 | 65.68021 | 9083 ft | 395 kts | 103° |
| 2026-04-30 15:01 | 57.25170 | 65.71363 | 9411 ft | 401 kts | 102° |
| 2026-04-30 15:01 | 57.24007 | 65.83152 | 11172 ft | 405 kts | 103° |
| 2026-04-30 15:02 | 57.23508 | 65.88279 | 11914 ft | 406 kts | 103° |
| 2026-04-30 15:02 | 57.23010 | 65.93393 | 12675 ft | 406 kts | 103° |
| 2026-04-30 15:03 | 57.21520 | 66.08640 | 14912 ft | 406 kts | 105° |
| 2026-04-30 15:03 | 57.20512 | 66.18832 | 16401 ft | 405 kts | 106° |
| 2026-04-30 15:04 | 57.19505 | 66.28927 | 17874 ft | 403 kts | 107° |
| 2026-04-30 15:04 | 57.17981 | 66.43968 | 20114 ft | 397 kts | 107° |
| 2026-04-30 15:05 | 57.16470 | 66.58746 | 22366 ft | 388 kts | 108° |
| 2026-04-30 15:06 | 57.15486 | 66.68303 | 23850 ft | 379 kts | 109° |
| 2026-04-30 15:06 | 57.14526 | 66.77628 | 25388 ft | 365 kts | 109° |
| 2026-04-30 15:07 | 57.13536 | 66.86937 | 25772 ft | 388 kts | 109° |
| 2026-04-30 15:07 | 57.12455 | 66.96992 | 26154 ft | 408 kts | 108° |
| 2026-04-30 15:08 | 57.11373 | 67.07246 | 27070 ft | 412 kts | 108° |
| 2026-04-30 15:08 | 57.09705 | 67.22810 | 28411 ft | 417 kts | 109° |
| 2026-04-30 15:09 | 57.08568 | 67.33275 | 29313 ft | 418 kts | 109° |
| 2026-04-30 15:09 | 57.07424 | 67.43721 | 30201 ft | 418 kts | 109° |
| 2026-04-30 15:10 | 57.06278 | 67.54121 | 31129 ft | 417 kts | 109° |
| 2026-04-30 15:11 | 57.03978 | 67.74757 | 32983 ft | 409 kts | 110° |
| 2026-04-30 15:11 | 57.02803 | 67.85096 | 33286 ft | 421 kts | 111° |
| 2026-04-30 15:12 | 57.00937 | 68.01279 | 33452 ft | 444 kts | 110° |
| 2026-04-30 15:13 | 56.99657 | 68.12365 | 33747 ft | 453 kts | 110° |
| 2026-04-30 15:14 | 56.96993 | 68.35195 | 34529 ft | 464 kts | 109° |
| 2026-04-30 15:14 | 56.94944 | 68.52471 | 35191 ft | 466 kts | 109° |
| 2026-04-30 15:16 | 56.91483 | 68.81190 | 36283 ft | 461 kts | 109° |
| 2026-04-30 15:17 | 56.88673 | 69.03861 | 37104 ft | 460 kts | 109° |
| 2026-04-30 15:18 | 56.84993 | 69.32998 | 37141 ft | 484 kts | 108° |
| 2026-04-30 15:19 | 56.82688 | 69.51082 | 37146 ft | 495 kts | 108° |